Jaguari, Brazil
Current Conditions -  °F | °C
As of 4:00 PM on Wednesday 26 Nov 2014 (Local Time) from SBSM Reporting Station
Scattered Clouds Scattered Clouds  
Wind Chill: 84°   Ceiling: Unl
Heat Index: 86°   Visibility: 6mi
Dew Point: 66°   Wind: 8mph
Humidity: 55%   Direction: 110°ESE
Pressure: 29.8"   Gusts: NA
Location:  29.5°S, 54.69°W
Report Text: SBSM 261800Z 11007KT 070V140 9999 SCT040 29/19 Q1009
Loading
Personal Weather Stations






























Interactive Weather Map New forecast layout! Learn more

10-Day Weather Forecast

Advertisements
Track Severe Weather on mobile